»·PEaware :: N515SL KAJO-KVCV

N515SL :: KAJO-KVCV

FLIGHT INFORMATION

Flight Status: Arrived
Operator: Privately registered:
United States
More flights under this callsign
Pilot: Doug L. (8712)
Aircraft: PILATUS PC-12 EAGLE
(PC12)
More flights by this aircraft type
Origin: KAJO Corona Mun
United States
Destination: KVCV Socal Logistics
United States
More flights between these airports :: More routes between these airports
Route: PDZ V442 APLES
File this flight plan on PilotEdge
Remarks: i11
Altitude:
(Current/Filed)
9,000ft
Speed:
(Current/Filed)
220kts
Departed: 28-Dec-18 09:40 PM
Arrived: 28-Dec-18 10:23 PM
Distance/Time
Traveled:
43nm/0:43
Distance/Time
To Go:
Arrived

Flight Plot

Page will automatically refresh every two minutes.


Map Options




Map Legend


Flown Route
Filed Route
Departure Airport
Arrival Airport
Navaid (VOR, NDB)
Fix

Horizontal Profiles

Position Reports

Time Latitude Longitude Heading Altitude Ground
Speed
28-Dec-18 21:26 33.896590 -117.600151 273 537ft 0kts
28-Dec-18 21:27 33.896590 -117.600151 273 537ft 0kts
28-Dec-18 21:28 33.896590 -117.600151 273 537ft 0kts
28-Dec-18 21:29 33.896590 -117.600151 273 537ft 0kts
28-Dec-18 21:30 33.897060 -117.600541 312 537ft 5kts
28-Dec-18 21:31 33.896987 -117.597268 88 537ft 11kts
28-Dec-18 21:32 33.897191 -117.596981 303 537ft 0kts
28-Dec-18 21:33 33.897191 -117.596981 303 537ft 0kts
28-Dec-18 21:34 33.897191 -117.596981 303 537ft 0kts
28-Dec-18 21:35 33.897191 -117.596981 303 537ft 0kts
28-Dec-18 21:36 33.897191 -117.596981 303 537ft 0kts
28-Dec-18 21:37 33.897191 -117.596981 303 537ft 0kts
28-Dec-18 21:38 33.897191 -117.596981 303 537ft 0kts
28-Dec-18 21:39 33.897729 -117.599386 269 537ft 59kts
28-Dec-18 21:40 33.898357 -117.633065 341 1886ft 124kts
28-Dec-18 21:41 33.915549 -117.601739 85 3787ft 149kts
28-Dec-18 21:42 33.918006 -117.552865 85 5924ft 147kts
28-Dec-18 21:43 33.936125 -117.512389 40 7943ft 147kts
28-Dec-18 21:44 33.972010 -117.495098 318 9017ft 196kts
28-Dec-18 21:45 33.941524 -117.539436 176 9003ft 245kts
28-Dec-18 21:46 33.893435 -117.577984 276 8998ft 240kts
28-Dec-18 21:47 33.940017 -117.610843 26 8992ft 224kts
28-Dec-18 21:48 33.985690 -117.559755 42 8991ft 225kts
28-Dec-18 21:49 34.023077 -117.501133 83 8994ft 232kts
28-Dec-18 21:50 33.976587 -117.462740 206 8993ft 253kts
28-Dec-18 21:51 33.925372 -117.520579 225 8997ft 253kts
28-Dec-18 21:52 33.931020 -117.582380 354 8995ft 229kts
28-Dec-18 21:53 33.968530 -117.528800 64 8991ft 231kts
28-Dec-18 21:54 34.011997 -117.475982 29 8997ft 226kts
28-Dec-18 21:55 34.067338 -117.441230 25 8995ft 224kts
28-Dec-18 21:56 34.122329 -117.408093 25 9001ft 224kts
28-Dec-18 21:57 34.178086 -117.374719 25 9000ft 223kts
28-Dec-18 21:58 34.233377 -117.341410 26 9001ft 223kts
28-Dec-18 21:59 34.289035 -117.307506 25 8983ft 224kts
28-Dec-18 22:00 34.344452 -117.274012 25 8984ft 223kts
28-Dec-18 22:01 34.399843 -117.240202 25 8983ft 222kts
28-Dec-18 22:02 34.455216 -117.206749 25 8981ft 222kts
28-Dec-18 22:03 34.510530 -117.173338 25 8981ft 222kts
28-Dec-18 22:04 34.567654 -117.146258 7 8406ft 222kts
28-Dec-18 22:05 34.628265 -117.147599 351 7407ft 218kts
28-Dec-18 22:06 34.685059 -117.170193 335 6701ft 210kts
28-Dec-18 22:07 34.731369 -117.208705 320 6597ft 195kts
28-Dec-18 22:08 34.765422 -117.257680 306 6634ft 192kts
28-Dec-18 22:09 34.788626 -117.318495 290 5902ft 210kts
28-Dec-18 22:10 34.765983 -117.374748 188 4697ft 203kts
28-Dec-18 22:11 34.714093 -117.379311 183 4386ft 178kts
28-Dec-18 22:12 34.666870 -117.383840 184 3769ft 174kts
28-Dec-18 22:14 34.618291 -117.389321 209 3993ft 177kts
28-Dec-18 22:15 34.615114 -117.441604 276 5968ft 163kts
28-Dec-18 22:16 34.618208 -117.507324 276 5978ft 227kts
28-Dec-18 22:17 34.626712 -117.582819 313 5383ft 220kts
28-Dec-18 22:18 34.661324 -117.558237 111 4728ft 209kts
28-Dec-18 22:19 34.641862 -117.490624 112 4276ft 214kts
28-Dec-18 22:20 34.615170 -117.426240 121 3829ft 205kts
28-Dec-18 22:21 34.610295 -117.380179 46 3611ft 109kts
28-Dec-18 22:22 34.599525 -117.367775 225 2863ft 91kts
28-Dec-18 22:23 34.593833 -117.372709 184 2859ft 0kts
28-Dec-18 22:24 34.592059 -117.373769 226 2864ft 17kts
28-Dec-18 22:25 34.588289 -117.374672 212 2868ft 10kts
28-Dec-18 22:26 34.588218 -117.374747 225 2868ft 0kts

Navigation Log

Ident Type
Flight plan parsing failed, navigation log unavailable